sensor_id;sensor_type;location;lat;lon;timestamp;pressure;altitude;pressure_sealevel;temperature;humidity
71772;BME280;59606;52.138;5.424;2022-10-10T00:01:17;101626.19;;;7.35;79.83
71772;BME280;59606;52.138;5.424;2022-10-10T00:03:44;101628.78;;;7.35;79.88
71772;BME280;59606;52.138;5.424;2022-10-10T00:06:11;101617.53;;;7.34;80.36
71772;BME280;59606;52.138;5.424;2022-10-10T00:08:39;101623.69;;;7.30;80.18
71772;BME280;59606;52.138;5.424;2022-10-10T00:11:07;101618.56;;;7.28;80.83
71772;BME280;59606;52.138;5.424;2022-10-10T00:13:33;101616.00;;;7.27;80.62
71772;BME280;59606;52.138;5.424;2022-10-10T00:16:00;101627.22;;;7.27;80.77
71772;BME280;59606;52.138;5.424;2022-10-10T00:18:28;101621.25;;;7.25;81.02
71772;BME280;59606;52.138;5.424;2022-10-10T00:20:54;101621.28;;;7.24;81.27
71772;BME280;59606;52.138;5.424;2022-10-10T00:23:21;101629.94;;;7.24;80.94
71772;BME280;59606;52.138;5.424;2022-10-10T00:25:47;101620.44;;;7.23;81.35
71772;BME280;59606;52.138;5.424;2022-10-10T00:28:14;101622.25;;;7.21;81.33
71772;BME280;59606;52.138;5.424;2022-10-10T00:30:41;101612.75;;;7.20;81.34
71772;BME280;59606;52.138;5.424;2022-10-10T00:33:08;101615.38;;;7.19;81.50
71772;BME280;59606;52.138;5.424;2022-10-10T00:35:35;101618.88;;;7.18;81.84
71772;BME280;59606;52.138;5.424;2022-10-10T00:38:01;101612.81;;;7.17;81.73
71772;BME280;59606;52.138;5.424;2022-10-10T00:40:28;101606.03;;;7.13;81.66
71772;BME280;59606;52.138;5.424;2022-10-10T00:42:54;101605.19;;;7.13;81.70
71772;BME280;59606;52.138;5.424;2022-10-10T00:48:02;101602.69;;;7.09;82.00
71772;BME280;59606;52.138;5.424;2022-10-10T00:50:31;101595.84;;;7.07;82.08
71772;BME280;59606;52.138;5.424;2022-10-10T00:52:58;101594.22;;;7.04;82.14
71772;BME280;59606;52.138;5.424;2022-10-10T00:55:25;101594.31;;;7.00;82.41
71772;BME280;59606;52.138;5.424;2022-10-10T00:57:52;101587.44;;;6.99;81.92
71772;BME280;59606;52.138;5.424;2022-10-10T01:00:18;101590.13;;;6.96;82.11
71772;BME280;59606;52.138;5.424;2022-10-10T01:02:45;101591.03;;;6.95;82.10
71772;BME280;59606;52.138;5.424;2022-10-10T01:05:12;101592.84;;;6.91;82.23
71772;BME280;59606;52.138;5.424;2022-10-10T01:07:38;101590.28;;;6.90;81.97
71772;BME280;59606;52.138;5.424;2022-10-10T01:10:10;101583.41;;;6.89;82.23
71772;BME280;59606;52.138;5.424;2022-10-10T01:28:42;101578.63;;;6.75;82.43
71772;BME280;59606;52.138;5.424;2022-10-10T01:31:12;101575.19;;;6.73;82.25
71772;BME280;59606;52.138;5.424;2022-10-10T01:34:08;101576.13;;;6.70;82.04
71772;BME280;59606;52.138;5.424;2022-10-10T01:42:03;101563.25;;;6.67;82.04
71772;BME280;59606;52.138;5.424;2022-10-10T01:44:31;101565.00;;;6.67;81.92
71772;BME280;59606;52.138;5.424;2022-10-10T01:46:58;101559.06;;;6.63;82.38
71772;BME280;59606;52.138;5.424;2022-10-10T01:49:29;101557.41;;;6.60;82.38
71772;BME280;59606;52.138;5.424;2022-10-10T02:00:10;101550.75;;;6.52;82.94
71772;BME280;59606;52.138;5.424;2022-10-10T02:03:15;101543.00;;;6.50;82.58
71772;BME280;59606;52.138;5.424;2022-10-10T02:05:54;101534.44;;;6.48;82.82
71772;BME280;59606;52.138;5.424;2022-10-10T02:08:42;101537.88;;;6.49;82.82
71772;BME280;59606;52.138;5.424;2022-10-10T02:11:11;101532.75;;;6.47;83.07
71772;BME280;59606;52.138;5.424;2022-10-10T02:13:51;101535.44;;;6.44;83.16
71772;BME280;59606;52.138;5.424;2022-10-10T02:16:29;101534.53;;;6.44;82.90
71772;BME280;59606;52.138;5.424;2022-10-10T02:18:57;101529.44;;;6.42;83.05
71772;BME280;59606;52.138;5.424;2022-10-10T02:21:28;101530.31;;;6.41;82.95
71772;BME280;59606;52.138;5.424;2022-10-10T02:23:58;101531.19;;;6.40;83.12
71772;BME280;59606;52.138;5.424;2022-10-10T02:26:27;101520.91;;;6.38;83.10
71772;BME280;59606;52.138;5.424;2022-10-10T02:28:59;101514.88;;;6.38;83.62
71772;BME280;59606;52.138;5.424;2022-10-10T02:31:32;101514.91;;;6.36;83.45
71772;BME280;59606;52.138;5.424;2022-10-10T02:34:11;101520.13;;;6.35;83.73
71772;BME280;59606;52.138;5.424;2022-10-10T02:36:41;101512.38;;;6.33;83.39
71772;BME280;59606;52.138;5.424;2022-10-10T02:39:11;101505.53;;;6.32;83.61
71772;BME280;59606;52.138;5.424;2022-10-10T02:41:40;101505.50;;;6.34;83.74
71772;BME280;59606;52.138;5.424;2022-10-10T02:44:10;101505.59;;;6.31;83.51
71772;BME280;59606;52.138;5.424;2022-10-10T02:46:38;101503.84;;;6.31;83.34
71772;BME280;59606;52.138;5.424;2022-10-10T02:49:08;101503.03;;;6.29;83.55
71772;BME280;59606;52.138;5.424;2022-10-10T02:51:34;101505.59;;;6.29;83.98
71772;BME280;59606;52.138;5.424;2022-10-10T02:54:01;101492.66;;;6.29;83.35
71772;BME280;59606;52.138;5.424;2022-10-10T02:56:27;101497.00;;;6.29;83.48
71772;BME280;59606;52.138;5.424;2022-10-10T02:58:54;101488.41;;;6.27;83.99
71772;BME280;59606;52.138;5.424;2022-10-10T03:01:20;101492.75;;;6.26;84.03
71772;BME280;59606;52.138;5.424;2022-10-10T03:03:47;101476.38;;;6.26;84.25
71772;BME280;59606;52.138;5.424;2022-10-10T03:06:13;101476.28;;;6.29;84.53
71772;BME280;59606;52.138;5.424;2022-10-10T03:08:40;101477.03;;;6.34;85.17
71772;BME280;59606;52.138;5.424;2022-10-10T03:11:06;101479.50;;;6.37;85.33
71772;BME280;59606;52.138;5.424;2022-10-10T03:13:33;101480.34;;;6.39;85.13
71772;BME280;59606;52.138;5.424;2022-10-10T03:15:59;101481.19;;;6.40;85.68
71772;BME280;59606;52.138;5.424;2022-10-10T03:18:26;101485.50;;;6.41;85.72
71772;BME280;59606;52.138;5.424;2022-10-10T03:20:54;101481.22;;;6.38;85.42
71772;BME280;59606;52.138;5.424;2022-10-10T03:23:25;101479.50;;;6.37;85.92
71772;BME280;59606;52.138;5.424;2022-10-10T03:25:51;101479.56;;;6.35;85.51
71772;BME280;59606;52.138;5.424;2022-10-10T03:28:18;101476.16;;;6.33;85.81
71772;BME280;59606;52.138;5.424;2022-10-10T03:30:45;101477.91;;;6.33;85.64
71772;BME280;59606;52.138;5.424;2022-10-10T03:33:11;101487.38;;;6.34;85.65
71772;BME280;59606;52.138;5.424;2022-10-10T03:35:38;101478.75;;;6.33;86.15
71772;BME280;59606;52.138;5.424;2022-10-10T03:38:05;101484.81;;;6.34;86.27
71772;BME280;59606;52.138;5.424;2022-10-10T03:40:32;101487.38;;;6.34;86.37
71772;BME280;59606;52.138;5.424;2022-10-10T03:42:59;101487.34;;;6.35;86.24
71772;BME280;59606;52.138;5.424;2022-10-10T03:45:26;101483.06;;;6.34;86.32
71772;BME280;59606;52.138;5.424;2022-10-10T03:47:52;101476.16;;;6.33;86.83
71772;BME280;59606;52.138;5.424;2022-10-10T03:50:19;101474.44;;;6.34;86.88
71772;BME280;59606;52.138;5.424;2022-10-10T03:52:45;101477.97;;;6.31;87.07
71772;BME280;59606;52.138;5.424;2022-10-10T03:55:11;101481.31;;;6.35;87.50
71772;BME280;59606;52.138;5.424;2022-10-10T03:57:38;101483.94;;;6.33;87.23
71772;BME280;59606;52.138;5.424;2022-10-10T04:00:05;101480.56;;;6.31;87.17
71772;BME280;59606;52.138;5.424;2022-10-10T04:02:31;101478.00;;;6.30;87.33
71772;BME280;59606;52.138;5.424;2022-10-10T04:04:58;101477.97;;;6.31;87.60
71772;BME280;59606;52.138;5.424;2022-10-10T04:07:24;101481.34;;;6.33;88.06
71772;BME280;59606;52.138;5.424;2022-10-10T04:09:51;101478.72;;;6.35;88.12
71772;BME280;59606;52.138;5.424;2022-10-10T04:12:17;101475.31;;;6.33;87.96
71772;BME280;59606;52.138;5.424;2022-10-10T04:14:43;101479.56;;;6.35;87.95
71772;BME280;59606;52.138;5.424;2022-10-10T04:17:10;101477.88;;;6.34;87.82
71772;BME280;59606;52.138;5.424;2022-10-10T04:19:36;101472.63;;;6.37;88.28
71772;BME280;59606;52.138;5.424;2022-10-10T04:22:03;101477.81;;;6.37;88.14
71772;BME280;59606;52.138;5.424;2022-10-10T04:24:36;101476.13;;;6.35;88.32
71772;BME280;59606;52.138;5.424;2022-10-10T04:27:02;101471.88;;;6.34;88.28
71772;BME280;59606;52.138;5.424;2022-10-10T04:29:29;101473.56;;;6.35;88.53
71772;BME280;59606;52.138;5.424;2022-10-10T04:31:55;101469.28;;;6.34;88.79
71772;BME280;59606;52.138;5.424;2022-10-10T04:34:22;101478.75;;;6.33;88.58
71772;BME280;59606;52.138;5.424;2022-10-10T04:36:48;101466.84;;;6.28;88.52
71772;BME280;59606;52.138;5.424;2022-10-10T04:39:14;101467.72;;;6.27;88.62
71772;BME280;59606;52.138;5.424;2022-10-10T04:41:41;101460.78;;;6.29;88.63
71772;BME280;59606;52.138;5.424;2022-10-10T04:44:07;101466.72;;;6.32;89.03
71772;BME280;59606;52.138;5.424;2022-10-10T04:46:34;101471.88;;;6.34;89.28
71772;BME280;59606;52.138;5.424;2022-10-10T04:49:00;101467.56;;;6.33;89.48
71772;BME280;59606;52.138;5.424;2022-10-10T04:51:27;101463.28;;;6.32;89.09
71772;BME280;59606;52.138;5.424;2022-10-10T04:53:53;101465.03;;;6.31;89.56
71772;BME280;59606;52.138;5.424;2022-10-10T04:56:19;101473.63;;;6.32;89.21
71772;BME280;59606;52.138;5.424;2022-10-10T04:58:46;101472.81;;;6.30;89.41
71772;BME280;59606;52.138;5.424;2022-10-10T05:01:12;101470.22;;;6.30;89.29
71772;BME280;59606;52.138;5.424;2022-10-10T05:03:39;101459.88;;;6.30;89.50
71772;BME280;59606;52.138;5.424;2022-10-10T05:06:05;101462.50;;;6.28;89.54
71772;BME280;59606;52.138;5.424;2022-10-10T05:08:32;101466.78;;;6.29;89.90
71772;BME280;59606;52.138;5.424;2022-10-10T05:10:58;101463.31;;;6.30;89.94
71772;BME280;59606;52.138;5.424;2022-10-10T05:13:25;101456.41;;;6.31;90.03
71772;BME280;59606;52.138;5.424;2022-10-10T05:15:51;101464.09;;;6.34;90.12
71772;BME280;59606;52.138;5.424;2022-10-10T05:18:19;101460.63;;;6.33;90.35
71772;BME280;59606;52.138;5.424;2022-10-10T05:20:46;101458.94;;;6.34;90.32
71772;BME280;59606;52.138;5.424;2022-10-10T05:23:14;101449.41;;;6.34;90.31
71772;BME280;59606;52.138;5.424;2022-10-10T05:25:46;101451.09;;;6.35;90.73
71772;BME280;59606;52.138;5.424;2022-10-10T05:28:13;101450.22;;;6.36;90.73
71772;BME280;59606;52.138;5.424;2022-10-10T05:30:39;101451.94;;;6.36;90.99
71772;BME280;59606;52.138;5.424;2022-10-10T05:33:06;101452.00;;;6.34;90.66
71772;BME280;59606;52.138;5.424;2022-10-10T05:35:32;101446.00;;;6.34;90.81
71772;BME280;59606;52.138;5.424;2022-10-10T05:37:58;101452.78;;;6.36;91.16
71772;BME280;59606;52.138;5.424;2022-10-10T05:40:25;101446.78;;;6.36;91.42
71772;BME280;59606;52.138;5.424;2022-10-10T05:42:52;101449.38;;;6.36;91.38
71772;BME280;59606;52.138;5.424;2022-10-10T05:45:19;101452.78;;;6.38;91.35
71772;BME280;59606;52.138;5.424;2022-10-10T05:47:45;101452.78;;;6.36;91.38
71772;BME280;59606;52.138;5.424;2022-10-10T05:50:24;101455.34;;;6.38;91.47
71772;BME280;59606;52.138;5.424;2022-10-10T05:52:52;101460.56;;;6.36;91.55
71772;BME280;59606;52.138;5.424;2022-10-10T05:55:19;101458.81;;;6.37;91.53
71772;BME280;59606;52.138;5.424;2022-10-10T05:57:46;101460.63;;;6.35;91.80
71772;BME280;59606;52.138;5.424;2022-10-10T06:00:12;101459.72;;;6.36;91.66
71772;BME280;59606;52.138;5.424;2022-10-10T06:02:39;101470.06;;;6.36;91.67
71772;BME280;59606;52.138;5.424;2022-10-10T06:05:05;101471.81;;;6.35;91.79
71772;BME280;59606;52.138;5.424;2022-10-10T06:07:32;101470.97;;;6.35;91.78
71772;BME280;59606;52.138;5.424;2022-10-10T06:10:18;101471.75;;;6.37;92.05
71772;BME280;59606;52.138;5.424;2022-10-10T06:12:45;101471.75;;;6.37;91.88
71772;BME280;59606;52.138;5.424;2022-10-10T06:15:11;101470.06;;;6.36;92.21
71772;BME280;59606;52.138;5.424;2022-10-10T06:17:38;101465.72;;;6.36;91.88
71772;BME280;59606;52.138;5.424;2022-10-10T06:20:05;101464.00;;;6.37;91.90
71772;BME280;59606;52.138;5.424;2022-10-10T06:22:31;101473.41;;;6.40;92.01
71772;BME280;59606;52.138;5.424;2022-10-10T06:24:58;101474.22;;;6.42;92.00
71772;BME280;59606;52.138;5.424;2022-10-10T06:27:24;101468.22;;;6.41;92.10
71772;BME280;59606;52.138;5.424;2022-10-10T06:29:51;101476.75;;;6.45;92.39
71772;BME280;59606;52.138;5.424;2022-10-10T06:32:17;101470.59;;;6.49;92.71
71772;BME280;59606;52.138;5.424;2022-10-10T06:34:43;101474.84;;;6.51;92.36
71772;BME280;59606;52.138;5.424;2022-10-10T06:37:10;101473.78;;;6.57;92.37
71772;BME280;59606;52.138;5.424;2022-10-10T06:39:37;101472.84;;;6.61;92.42
71772;BME280;59606;52.138;5.424;2022-10-10T06:42:04;101476.94;;;6.68;92.56
71772;BME280;59606;52.138;5.424;2022-10-10T06:44:30;101480.28;;;6.72;92.68
71772;BME280;59606;52.138;5.424;2022-10-10T06:46:57;101485.31;;;6.78;92.96
71772;BME280;59606;52.138;5.424;2022-10-10T06:49:23;101479.06;;;6.85;92.83
71772;BME280;59606;52.138;5.424;2022-10-10T06:51:50;101471.97;;;6.90;93.02
71772;BME280;59606;52.138;5.424;2022-10-10T06:54:16;101482.97;;;6.98;92.70
71772;BME280;59606;52.138;5.424;2022-10-10T06:56:43;101487.88;;;7.07;92.95
71772;BME280;59606;52.138;5.424;2022-10-10T06:59:09;101494.50;;;7.18;92.89
71772;BME280;59606;52.138;5.424;2022-10-10T07:01:36;101491.59;;;7.27;93.10
71772;BME280;59606;52.138;5.424;2022-10-10T07:04:02;101487.91;;;7.36;93.02
71772;BME280;59606;52.138;5.424;2022-10-10T07:06:29;101496.25;;;7.45;92.88
71772;BME280;59606;52.138;5.424;2022-10-10T07:09:00;101493.25;;;7.57;92.94
71772;BME280;59606;52.138;5.424;2022-10-10T07:11:26;101483.31;;;7.70;93.28
71772;BME280;59606;52.138;5.424;2022-10-10T07:13:52;101484.72;;;7.80;93.23
71772;BME280;59606;52.138;5.424;2022-10-10T07:16:19;101480.91;;;7.91;92.68
71772;BME280;59606;52.138;5.424;2022-10-10T07:18:46;101484.88;;;8.02;92.84
71772;BME280;59606;52.138;5.424;2022-10-10T07:21:12;101494.13;;;8.10;92.58
71772;BME280;59606;52.138;5.424;2022-10-10T07:23:38;101498.22;;;8.17;92.99
71772;BME280;59606;52.138;5.424;2022-10-10T07:26:07;101493.50;;;8.28;92.58
71772;BME280;59606;52.138;5.424;2022-10-10T07:28:36;101504.41;;;8.39;92.61
71772;BME280;59606;52.138;5.424;2022-10-10T07:31:05;101495.31;;;8.51;92.48
71772;BME280;59606;52.138;5.424;2022-10-10T07:33:34;101499.16;;;8.64;92.63
71772;BME280;59606;52.138;5.424;2022-10-10T07:36:01;101503.97;;;8.75;92.60
71772;BME280;59606;52.138;5.424;2022-10-10T07:38:28;101493.25;;;8.84;92.49
71772;BME280;59606;52.138;5.424;2022-10-10T07:40:54;101495.72;;;8.87;91.60
71772;BME280;59606;52.138;5.424;2022-10-10T07:43:21;101498.16;;;8.92;91.85
71772;BME280;59606;52.138;5.424;2022-10-10T07:45:47;101502.16;;;9.01;91.82
71772;BME280;59606;52.138;5.424;2022-10-10T07:48:14;101494.88;;;9.10;91.56
71772;BME280;59606;52.138;5.424;2022-10-10T07:50:42;101501.53;;;9.17;90.89
71772;BME280;59606;52.138;5.424;2022-10-10T07:53:10;101507.28;;;9.26;90.93
71772;BME280;59606;52.138;5.424;2022-10-10T07:55:42;101498.50;;;9.28;90.96
71772;BME280;59606;52.138;5.424;2022-10-10T07:58:10;101503.66;;;9.30;90.72
71772;BME280;59606;52.138;5.424;2022-10-10T08:00:38;101504.31;;;9.35;91.22
71772;BME280;59606;52.138;5.424;2022-10-10T08:03:10;101512.78;;;9.40;90.64
71772;BME280;59606;52.138;5.424;2022-10-10T08:05:42;101514.44;;;9.42;90.24
71772;BME280;59606;52.138;5.424;2022-10-10T08:08:10;101518.72;;;9.43;90.25
71772;BME280;59606;52.138;5.424;2022-10-10T08:10:37;101516.72;;;9.50;90.85
71772;BME280;59606;52.138;5.424;2022-10-10T08:13:07;101520.53;;;9.63;90.93
71772;BME280;59606;52.138;5.424;2022-10-10T08:15:34;101520.19;;;9.73;90.79
71772;BME280;59606;52.138;5.424;2022-10-10T08:18:00;101524.75;;;9.88;90.98
71772;BME280;59606;52.138;5.424;2022-10-10T08:20:26;101520.53;;;10.06;90.36
71772;BME280;59606;52.138;5.424;2022-10-10T08:22:53;101512.78;;;10.25;90.17
71772;BME280;59606;52.138;5.424;2022-10-10T08:25:20;101518.09;;;10.44;89.59
71772;BME280;59606;52.138;5.424;2022-10-10T08:27:46;101511.31;;;10.60;89.19
71772;BME280;59606;52.138;5.424;2022-10-10T08:30:13;101512.16;;;10.79;88.34
71772;BME280;59606;52.138;5.424;2022-10-10T08:32:39;101513.03;;;10.99;87.88
71772;BME280;59606;52.138;5.424;2022-10-10T08:35:06;101512.91;;;11.21;87.49
71772;BME280;59606;52.138;5.424;2022-10-10T08:37:32;101513.88;;;11.37;86.40
71772;BME280;59606;52.138;5.424;2022-10-10T08:40:03;101512.38;;;11.50;86.04
71772;BME280;59606;52.138;5.424;2022-10-10T08:42:37;101519.59;;;11.63;86.10
71772;BME280;59606;52.138;5.424;2022-10-10T08:45:18;101514.78;;;11.72;84.98
71772;BME280;59606;52.138;5.424;2022-10-10T08:47:54;101524.81;;;11.80;85.43
71772;BME280;59606;52.138;5.424;2022-10-10T08:50:26;101517.22;;;11.94;84.80
71772;BME280;59606;52.138;5.424;2022-10-10T08:53:14;101524.22;;;12.11;84.39
71772;BME280;59606;52.138;5.424;2022-10-10T08:55:43;101522.66;;;12.24;84.07
71772;BME280;59606;52.138;5.424;2022-10-10T08:58:26;101527.25;;;12.37;83.46
71772;BME280;59606;52.138;5.424;2022-10-10T09:01:11;101522.09;;;12.53;82.69
71772;BME280;59606;52.138;5.424;2022-10-10T09:03:53;101527.06;;;12.57;82.47
71772;BME280;59606;52.138;5.424;2022-10-10T09:09:49;101538.53;;;12.55;82.45
71772;BME280;59606;52.138;5.424;2022-10-10T09:12:34;101533.47;;;12.52;81.47
71772;BME280;59606;52.138;5.424;2022-10-10T09:15:30;101533.63;;;12.48;81.57
71772;BME280;59606;52.138;5.424;2022-10-10T09:21:17;101537.19;;;12.47;82.48
71772;BME280;59606;52.138;5.424;2022-10-10T09:26:24;101532.78;;;12.48;82.42
71772;BME280;59606;52.138;5.424;2022-10-10T09:31:35;101539.94;;;12.44;82.25
71772;BME280;59606;52.138;5.424;2022-10-10T09:34:15;101539.06;;;12.44;82.42
71772;BME280;59606;52.138;5.424;2022-10-10T09:36:43;101533.84;;;12.44;82.98
71772;BME280;59606;52.138;5.424;2022-10-10T09:41:59;101539.78;;;12.47;82.82
71772;BME280;59606;52.138;5.424;2022-10-10T09:44:26;101548.38;;;12.49;83.19
71772;BME280;59606;52.138;5.424;2022-10-10T09:46:53;101551.63;;;12.55;82.95
71772;BME280;59606;52.138;5.424;2022-10-10T09:49:20;101549.69;;;12.58;83.25
71772;BME280;59606;52.138;5.424;2022-10-10T09:51:48;101553.81;;;12.62;83.28
71772;BME280;59606;52.138;5.424;2022-10-10T09:54:17;101553.50;;;12.68;83.18
71772;BME280;59606;52.138;5.424;2022-10-10T09:56:53;101558.41;;;12.74;82.85
71772;BME280;59606;52.138;5.424;2022-10-10T09:59:37;101559.00;;;12.80;83.41
71772;BME280;59606;52.138;5.424;2022-10-10T10:02:36;101561.06;;;12.90;82.91
71772;BME280;59606;52.138;5.424;2022-10-10T10:05:17;101573.75;;;12.98;82.64
71772;BME280;59606;52.138;5.424;2022-10-10T10:07:47;101576.63;;;13.09;82.55
71772;BME280;59606;52.138;5.424;2022-10-10T10:10:19;101576.97;;;13.19;81.78
71772;BME280;59606;52.138;5.424;2022-10-10T10:12:46;101573.81;;;13.30;81.45
71772;BME280;59606;52.138;5.424;2022-10-10T10:15:30;101576.00;;;13.37;80.87
71772;BME280;59606;52.138;5.424;2022-10-10T10:20:46;101577.94;;;13.50;80.93
71772;BME280;59606;52.138;5.424;2022-10-10T10:23:32;101583.59;;;13.58;80.08
71772;BME280;59606;52.138;5.424;2022-10-10T10:27:06;101594.66;;;13.63;80.59
71772;BME280;59606;52.138;5.424;2022-10-10T10:29:28;101595.00;;;13.73;80.47
71772;BME280;59606;52.138;5.424;2022-10-10T10:32:24;101603.53;;;13.76;79.79
71772;BME280;59606;52.138;5.424;2022-10-10T10:35:10;101599.91;;;13.79;80.43
71772;BME280;59606;52.138;5.424;2022-10-10T10:40:22;101596.66;;;14.05;79.79
71772;BME280;59606;52.138;5.424;2022-10-10T10:48:45;101589.28;;;14.42;78.56
71772;BME280;59606;52.138;5.424;2022-10-10T10:54:13;101601.97;;;14.64;78.41
71772;BME280;59606;52.138;5.424;2022-10-10T11:02:40;101608.94;;;14.79;78.25
71772;BME280;59606;52.138;5.424;2022-10-10T11:21:40;101628.06;;;15.10;77.58
71772;BME280;59606;52.138;5.424;2022-10-10T11:24:14;101640.41;;;15.08;78.36
71772;BME280;59606;52.138;5.424;2022-10-10T11:26:50;101635.94;;;15.10;78.64
71772;BME280;59606;52.138;5.424;2022-10-10T11:29:23;101642.38;;;15.19;79.06
71772;BME280;59606;52.138;5.424;2022-10-10T11:31:56;101635.16;;;15.37;78.04
71772;BME280;59606;52.138;5.424;2022-10-10T11:34:29;101647.63;;;15.47;78.25
71772;BME280;59606;52.138;5.424;2022-10-10T11:37:04;101639.81;;;15.46;77.88
71772;BME280;59606;52.138;5.424;2022-10-10T11:39:43;101635.63;;;15.43;78.22
71772;BME280;59606;52.138;5.424;2022-10-10T11:42:18;101641.22;;;15.51;77.93
71772;BME280;59606;52.138;5.424;2022-10-10T11:45:23;101635.97;;;15.51;78.28
71772;BME280;59606;52.138;5.424;2022-10-10T11:48:24;101634.88;;;15.41;77.97
71772;BME280;59606;52.138;5.424;2022-10-10T11:50:58;101629.28;;;15.33;78.50
71772;BME280;59606;52.138;5.424;2022-10-10T11:53:40;101630.59;;;15.26;78.82
71772;BME280;59606;52.138;5.424;2022-10-10T11:56:29;101629.81;;;15.24;79.41
71772;BME280;59606;52.138;5.424;2022-10-10T11:59:10;101628.88;;;15.25;79.32
71772;BME280;59606;52.138;5.424;2022-10-10T12:01:45;101627.50;;;15.19;79.31
71772;BME280;59606;52.138;5.424;2022-10-10T12:04:13;101621.69;;;15.14;79.13
71772;BME280;59606;52.138;5.424;2022-10-10T12:06:44;101634.16;;;15.11;80.06
71772;BME280;59606;52.138;5.424;2022-10-10T12:09:29;101635.34;;;15.05;80.15
71772;BME280;59606;52.138;5.424;2022-10-10T12:14:25;101655.88;;;14.98;81.03
71772;BME280;59606;52.138;5.424;2022-10-10T12:16:54;101657.00;;;14.94;81.71
71772;BME280;59606;52.138;5.424;2022-10-10T12:19:23;101649.31;;;14.91;82.34
71772;BME280;59606;52.138;5.424;2022-10-10T12:22:01;101652.94;;;14.89;82.84
71772;BME280;59606;52.138;5.424;2022-10-10T12:24:35;101652.47;;;14.82;84.07
71772;BME280;59606;52.138;5.424;2022-10-10T12:27:18;101655.56;;;14.74;84.17
71772;BME280;59606;52.138;5.424;2022-10-10T12:32:25;101655.09;;;14.68;84.90
71772;BME280;59606;52.138;5.424;2022-10-10T12:37:32;101666.59;;;14.65;85.14
71772;BME280;59606;52.138;5.424;2022-10-10T12:42:59;101670.44;;;14.59;86.09
71772;BME280;59606;52.138;5.424;2022-10-10T12:47:59;101674.91;;;14.57;86.69
71772;BME280;59606;52.138;5.424;2022-10-10T12:50:40;101681.28;;;14.53;87.01
71772;BME280;59606;52.138;5.424;2022-10-10T12:55:42;101693.63;;;14.51;87.84
71772;BME280;59606;52.138;5.424;2022-10-10T13:00:55;101696.56;;;14.45;87.75
71772;BME280;59606;52.138;5.424;2022-10-10T13:03:28;101699.56;;;14.39;88.14
71772;BME280;59606;52.138;5.424;2022-10-10T13:08:43;101716.56;;;14.32;88.98
71772;BME280;59606;52.138;5.424;2022-10-10T13:11:14;101723.84;;;14.27;88.75
71772;BME280;59606;52.138;5.424;2022-10-10T13:13:57;101728.31;;;14.25;89.11
71772;BME280;59606;52.138;5.424;2022-10-10T13:16:27;101730.19;;;14.23;89.54
71772;BME280;59606;52.138;5.424;2022-10-10T13:18:59;101725.00;;;14.21;89.32
71772;BME280;59606;52.138;5.424;2022-10-10T13:21:28;101726.63;;;14.24;89.86
71772;BME280;59606;52.138;5.424;2022-10-10T13:24:14;101729.16;;;14.25;89.77
71772;BME280;59606;52.138;5.424;2022-10-10T13:26:44;101737.19;;;14.22;89.76
71772;BME280;59606;52.138;5.424;2022-10-10T13:31:44;101747.91;;;14.18;89.94
71772;BME280;59606;52.138;5.424;2022-10-10T13:34:14;101747.91;;;14.18;90.18
71772;BME280;59606;52.138;5.424;2022-10-10T13:36:42;101755.78;;;14.18;90.35
71772;BME280;59606;52.138;5.424;2022-10-10T13:39:15;101758.41;;;14.18;90.68
71772;BME280;59606;52.138;5.424;2022-10-10T13:41:46;101756.56;;;14.20;90.46
71772;BME280;59606;52.138;5.424;2022-10-10T13:44:15;101758.06;;;14.24;90.63
71772;BME280;59606;52.138;5.424;2022-10-10T13:46:45;101760.63;;;14.25;90.55
71772;BME280;59606;52.138;5.424;2022-10-10T13:49:24;101784.22;;;14.25;90.14
71772;BME280;59606;52.138;5.424;2022-10-10T13:52:19;101800.44;;;14.16;89.34
71772;BME280;59606;52.138;5.424;2022-10-10T13:54:47;101819.00;;;13.96;89.89
71772;BME280;59606;52.138;5.424;2022-10-10T13:57:24;101817.13;;;13.82;89.86
71772;BME280;59606;52.138;5.424;2022-10-10T14:00:00;101830.22;;;13.64;90.44
71772;BME280;59606;52.138;5.424;2022-10-10T14:02:32;101831.09;;;13.48;90.44
71772;BME280;59606;52.138;5.424;2022-10-10T14:05:03;101835.78;;;13.41;90.89
71772;BME280;59606;52.138;5.424;2022-10-10T14:07:31;101832.63;;;13.34;90.84
71772;BME280;59606;52.138;5.424;2022-10-10T14:10:04;101852.97;;;13.29;90.99
71772;BME280;59606;52.138;5.424;2022-10-10T14:12:38;101851.47;;;13.24;91.38
71772;BME280;59606;52.138;5.424;2022-10-10T14:17:56;101859.72;;;13.16;91.42
71772;BME280;59606;52.138;5.424;2022-10-10T14:20:22;101877.19;;;13.15;91.77
71772;BME280;59606;52.138;5.424;2022-10-10T14:22:49;101878.31;;;13.10;91.78
71772;BME280;59606;52.138;5.424;2022-10-10T14:25:16;101875.78;;;13.08;91.45
71772;BME280;59606;52.138;5.424;2022-10-10T14:27:42;101884.41;;;13.10;92.00
71772;BME280;59606;52.138;5.424;2022-10-10T14:30:12;101890.31;;;13.14;91.95
71772;BME280;59606;52.138;5.424;2022-10-10T14:32:39;101898.88;;;13.17;91.35
71772;BME280;59606;52.138;5.424;2022-10-10T14:35:06;101903.13;;;13.20;90.85
71772;BME280;59606;52.138;5.424;2022-10-10T14:37:32;101901.34;;;13.20;90.49
71772;BME280;59606;52.138;5.424;2022-10-10T14:40:18;101902.94;;;13.25;90.77
71772;BME280;59606;52.138;5.424;2022-10-10T14:42:45;101904.53;;;13.27;90.36
71772;BME280;59606;52.138;5.424;2022-10-10T14:45:13;101905.78;;;13.37;90.73
71772;BME280;59606;52.138;5.424;2022-10-10T14:47:41;101911.56;;;13.44;89.68
71772;BME280;59606;52.138;5.424;2022-10-10T14:50:16;101917.34;;;13.51;89.63
71772;BME280;59606;52.138;5.424;2022-10-10T14:52:43;101921.44;;;13.56;88.86
71772;BME280;59606;52.138;5.424;2022-10-10T14:55:10;101927.22;;;13.63;89.42
71772;BME280;59606;52.138;5.424;2022-10-10T14:57:37;101922.41;;;13.71;89.08
71772;BME280;59606;52.138;5.424;2022-10-10T15:00:06;101925.91;;;13.72;88.70
71772;BME280;59606;52.138;5.424;2022-10-10T15:02:33;101927.59;;;13.73;87.54